Ceuta, Spain
Current Conditions -  °F | °C
As of 4:50 PM on Saturday 22 Nov 2014 (Local Time) from LXGB Reporting Station
Broken Clouds Broken Clouds  
Wind Chill: 68°   Ceiling: 15000
Heat Index: 68°   Visibility: 6mi
Dew Point: 55°   Wind: 18mph
Humidity: 64%   Direction: 40°NE
Pressure: 29.71"   Gusts: 31mph
Location:  35.89°N, 5.32°W
Report Text: LXGB 221550Z 04016G27KT 9999 FEW014 BKN150 BKN250 20/13 Q1006 NOSIG
Loading
Personal Weather Stations






























Interactive Weather Map New forecast layout! Learn more

10-Day Weather Forecast

Advertisements
Track Severe Weather on mobile